createdAt,value
2023-09-25T00:08:09.264Z,24.50
2023-09-25T00:16:20.371Z,24.50
2023-09-25T00:24:32.083Z,24.50
2023-09-25T00:32:40.589Z,24.50
2023-09-25T00:40:47.338Z,24.50
2023-09-25T00:48:56.023Z,24.20
2023-09-25T00:57:01.785Z,24.40
2023-09-25T01:05:15.091Z,24.40
2023-09-25T01:13:20.629Z,24.20
2023-09-25T01:21:30.805Z,24.20
2023-09-25T01:29:40.006Z,24.20
2023-09-25T01:37:48.117Z,24.20
2023-09-25T01:46:00.407Z,24.30
2023-09-25T01:54:06.199Z,24.30
2023-09-25T02:02:14.336Z,24.50
2023-09-25T02:10:19.904Z,24.50
2023-09-25T02:18:27.961Z,24.50
2023-09-25T02:26:33.847Z,24.40
2023-09-25T02:34:42.131Z,24.60
2023-09-25T02:42:48.942Z,24.60
2023-09-25T02:50:57.115Z,24.70
2023-09-25T02:59:03.463Z,24.80
2023-09-25T03:07:11.469Z,24.70
2023-09-25T03:15:18.469Z,24.50
2023-09-25T03:23:30.212Z,24.60
2023-09-25T03:31:35.727Z,24.50
2023-09-25T03:39:44.003Z,24.50
2023-09-25T03:47:49.914Z,24.40
2023-09-25T03:55:58.037Z,24.40
2023-09-25T04:04:03.591Z,24.30
2023-09-25T04:12:12.901Z,24.30
2023-09-25T04:20:26.007Z,24.30
2023-09-25T04:28:34.227Z,24.20
2023-09-25T04:36:39.678Z,24.20
2023-09-25T04:44:47.789Z,24.40
2023-09-25T04:52:53.541Z,24.20
2023-09-25T05:01:01.689Z,24.10
2023-09-25T05:09:08.089Z,24.20
2023-09-25T05:17:16.148Z,24.40
2023-09-25T05:25:22.610Z,24.50
2023-09-25T05:33:30.675Z,24.40
2023-09-25T05:41:36.836Z,24.60
2023-09-25T05:49:45.143Z,24.70
2023-09-25T05:57:50.871Z,24.90
2023-09-25T06:05:59.121Z,25.00
2023-09-25T06:14:04.669Z,25.20
2023-09-25T06:22:13.458Z,25.40
2023-09-25T06:30:21.180Z,25.60
2023-09-25T06:38:29.496Z,26.00
2023-09-25T06:46:35.138Z,26.70
2023-09-25T06:54:43.379Z,27.10
2023-09-25T07:02:49.153Z,27.60
2023-09-25T07:10:58.244Z,27.90
2023-09-25T07:19:04.042Z,28.20
2023-09-25T07:27:14.631Z,28.60
2023-09-25T07:35:20.485Z,28.80
2023-09-25T07:51:39.710Z,28.50
2023-09-25T07:59:48.024Z,28.70
2023-09-25T08:07:57.052Z,28.90
2023-09-25T08:16:11.286Z,29.00
2023-09-25T08:24:17.284Z,29.20
2023-09-25T08:32:25.944Z,29.80
2023-09-25T08:40:35.527Z,29.60
2023-09-25T08:48:44.147Z,29.90
2023-09-25T08:56:50.752Z,29.90
2023-09-25T09:04:59.836Z,30.40
2023-09-25T09:13:10.247Z,30.50
2023-09-25T09:21:31.457Z,30.20
2023-09-25T09:29:39.305Z,30.10
2023-09-25T09:37:49.983Z,31.40
2023-09-25T09:45:55.808Z,31.20
2023-09-25T09:54:07.108Z,32.20
2023-09-25T10:02:13.296Z,36.90
2023-09-25T10:10:21.587Z,40.30
2023-09-25T10:18:29.792Z,42.50
2023-09-25T10:26:39.574Z,42.60
2023-09-25T10:34:46.158Z,39.20
2023-09-25T10:42:55.787Z,38.90
2023-09-25T10:51:01.279Z,40.00
2023-09-25T10:59:09.514Z,42.80
2023-09-25T11:07:15.007Z,41.70
2023-09-25T11:15:24.296Z,40.20
2023-09-25T11:23:29.775Z,40.60
2023-09-25T11:31:54.471Z,39.80
2023-09-25T11:40:04.350Z,40.70
2023-09-25T11:48:13.117Z,42.20
2023-09-25T12:22:16.550Z,35.20
2023-09-25T12:30:22.907Z,34.70
2023-09-25T12:38:31.786Z,34.40
2023-09-25T12:46:37.415Z,34.00
2023-09-25T12:54:47.382Z,33.60
2023-09-25T13:02:53.035Z,33.00
2023-09-25T13:11:01.229Z,32.80
2023-09-25T13:19:09.246Z,32.80
2023-09-25T13:27:17.802Z,32.90
2023-09-25T13:35:24.384Z,32.80
2023-09-25T13:43:32.426Z,32.70
2023-09-25T13:51:38.559Z,32.20
2023-09-25T13:59:46.673Z,32.30
2023-09-25T14:07:52.150Z,32.10
2023-09-25T14:16:00.433Z,31.90
2023-09-25T14:24:06.124Z,31.40
2023-09-25T14:32:14.602Z,31.40
2023-09-25T14:40:20.192Z,31.30
2023-09-25T14:48:28.806Z,31.00
2023-09-25T14:56:34.429Z,30.50
2023-09-25T15:04:42.591Z,31.00
2023-09-25T15:12:48.275Z,30.90
2023-09-25T15:20:56.344Z,30.90
2023-09-25T15:29:01.836Z,30.60
2023-09-25T15:37:11.106Z,30.50
2023-09-25T15:45:16.903Z,30.20
2023-09-25T15:53:24.903Z,30.10
2023-09-25T16:01:30.431Z,29.90
2023-09-25T16:09:38.646Z,29.70
2023-09-25T16:17:44.419Z,29.30
2023-09-25T16:25:52.461Z,29.10
2023-09-25T16:33:57.976Z,28.60
2023-09-25T16:42:06.771Z,28.20
2023-09-25T16:50:13.205Z,28.20
2023-09-25T16:58:22.808Z,28.20
2023-09-25T17:06:28.335Z,27.90
2023-09-25T17:14:36.463Z,27.30
2023-09-25T17:22:41.991Z,27.10
2023-09-25T17:31:08.695Z,26.80
2023-09-25T17:39:15.373Z,26.80
2023-09-25T17:47:25.661Z,26.60
2023-09-25T17:55:31.090Z,26.60
2023-09-25T18:03:42.006Z,25.80
2023-09-25T18:11:48.562Z,26.20
2023-09-25T18:19:56.665Z,25.80
2023-09-25T18:28:02.538Z,25.70
2023-09-25T18:36:14.164Z,25.90
2023-09-25T18:44:22.542Z,25.80
2023-09-25T18:52:30.818Z,25.80
2023-09-25T19:00:36.315Z,25.30
2023-09-25T19:08:44.420Z,25.80
2023-09-25T19:16:50.012Z,26.00
2023-09-25T19:24:58.426Z,25.80
2023-09-25T19:33:04.319Z,25.50
2023-09-25T19:41:12.445Z,25.50
2023-09-25T19:49:19.588Z,25.50
2023-09-25T19:57:27.801Z,25.50
2023-09-25T20:05:33.246Z,25.70
2023-09-25T20:13:41.254Z,25.50
2023-09-25T20:21:46.766Z,25.40
2023-09-25T20:29:54.944Z,25.30
2023-09-25T20:38:00.372Z,25.30
2023-09-25T20:46:08.629Z,25.20
2023-09-25T20:54:14.363Z,25.00
2023-09-25T21:02:22.421Z,25.10
2023-09-25T21:10:27.886Z,25.00
2023-09-25T21:18:35.906Z,24.90
2023-09-25T21:26:41.377Z,24.80
2023-09-25T21:34:49.424Z,24.70
2023-09-25T21:42:54.995Z,24.60
2023-09-25T21:51:04.353Z,24.40
2023-09-25T21:59:09.798Z,24.20
2023-09-25T22:07:17.919Z,24.00
2023-09-25T22:15:23.423Z,23.90
2023-09-25T22:23:33.149Z,23.80
2023-09-25T22:31:40.814Z,23.50
2023-09-25T22:39:49.024Z,23.60
2023-09-25T22:47:54.553Z,23.50
2023-09-25T22:56:07.577Z,23.40
2023-09-25T23:04:13.131Z,23.30
2023-09-25T23:12:21.274Z,23.10
2023-09-25T23:20:28.425Z,22.90
2023-09-25T23:28:36.502Z,22.90
2023-09-25T23:36:42.071Z,22.80
2023-09-25T23:44:50.559Z,22.80
2023-09-25T23:52:57.401Z,22.60
